sensor_id;sensor_type;location;lat;lon;timestamp;temperature;humidity
4215;DHT22;2121;48.062;7.850;2022-07-12T00:02:01;15.50;99.90
4215;DHT22;2121;48.062;7.850;2022-07-12T00:04:27;15.50;99.90
4215;DHT22;2121;48.062;7.850;2022-07-12T00:06:53;15.50;99.90
4215;DHT22;2121;48.062;7.850;2022-07-12T00:09:18;15.50;99.90
4215;DHT22;2121;48.062;7.850;2022-07-12T00:11:44;15.50;99.90
4215;DHT22;2121;48.062;7.850;2022-07-12T00:14:11;15.50;99.90
4215;DHT22;2121;48.062;7.850;2022-07-12T00:16:37;15.50;99.90
4215;DHT22;2121;48.062;7.850;2022-07-12T00:19:02;15.60;99.90
4215;DHT22;2121;48.062;7.850;2022-07-12T00:21:28;15.60;99.90
4215;DHT22;2121;48.062;7.850;2022-07-12T00:23:54;15.50;99.90
4215;DHT22;2121;48.062;7.850;2022-07-12T00:26:20;15.50;99.90
4215;DHT22;2121;48.062;7.850;2022-07-12T00:28:45;15.50;99.90
4215;DHT22;2121;48.062;7.850;2022-07-12T00:31:11;15.60;99.90
4215;DHT22;2121;48.062;7.850;2022-07-12T00:33:37;15.70;99.90
4215;DHT22;2121;48.062;7.850;2022-07-12T00:36:03;15.70;99.90
4215;DHT22;2121;48.062;7.850;2022-07-12T00:38:29;15.60;99.90
4215;DHT22;2121;48.062;7.850;2022-07-12T00:40:55;15.60;99.90
4215;DHT22;2121;48.062;7.850;2022-07-12T00:43:21;15.60;99.90
4215;DHT22;2121;48.062;7.850;2022-07-12T00:45:47;15.50;99.90
4215;DHT22;2121;48.062;7.850;2022-07-12T00:48:12;15.50;99.90
4215;DHT22;2121;48.062;7.850;2022-07-12T00:50:39;15.50;99.90
4215;DHT22;2121;48.062;7.850;2022-07-12T00:53:05;15.40;99.90
4215;DHT22;2121;48.062;7.850;2022-07-12T00:55:30;15.40;99.90
4215;DHT22;2121;48.062;7.850;2022-07-12T00:57:57;15.30;99.90
4215;DHT22;2121;48.062;7.850;2022-07-12T01:00:27;15.30;99.90
4215;DHT22;2121;48.062;7.850;2022-07-12T01:02:55;15.30;99.90
4215;DHT22;2121;48.062;7.850;2022-07-12T01:05:23;15.30;99.90
4215;DHT22;2121;48.062;7.850;2022-07-12T01:07:50;15.30;99.90
4215;DHT22;2121;48.062;7.850;2022-07-12T01:10:16;15.30;99.90
4215;DHT22;2121;48.062;7.850;2022-07-12T01:12:42;15.30;99.90
4215;DHT22;2121;48.062;7.850;2022-07-12T01:15:09;15.30;99.90
4215;DHT22;2121;48.062;7.850;2022-07-12T01:17:35;15.30;99.90
4215;DHT22;2121;48.062;7.850;2022-07-12T01:20:04;15.20;99.90
4215;DHT22;2121;48.062;7.850;2022-07-12T01:22:34;15.20;99.90
4215;DHT22;2121;48.062;7.850;2022-07-12T01:25:01;15.20;99.90
4215;DHT22;2121;48.062;7.850;2022-07-12T01:27:28;15.20;99.90
4215;DHT22;2121;48.062;7.850;2022-07-12T01:29:55;15.20;99.90
4215;DHT22;2121;48.062;7.850;2022-07-12T01:32:21;15.20;99.90
4215;DHT22;2121;48.062;7.850;2022-07-12T01:37:21;15.20;99.90
4215;DHT22;2121;48.062;7.850;2022-07-12T01:39:53;15.20;99.90
4215;DHT22;2121;48.062;7.850;2022-07-12T01:42:20;15.20;99.90
4215;DHT22;2121;48.062;7.850;2022-07-12T01:44:50;15.10;99.90
4215;DHT22;2121;48.062;7.850;2022-07-12T01:47:18;15.10;99.90
4215;DHT22;2121;48.062;7.850;2022-07-12T01:49:44;15.00;99.90
4215;DHT22;2121;48.062;7.850;2022-07-12T01:52:11;15.00;99.90
4215;DHT22;2121;48.062;7.850;2022-07-12T01:54:38;14.90;99.90
4215;DHT22;2121;48.062;7.850;2022-07-12T01:57:04;14.80;99.90
4215;DHT22;2121;48.062;7.850;2022-07-12T01:59:31;14.70;99.90
4215;DHT22;2121;48.062;7.850;2022-07-12T02:01:57;14.60;99.90
4215;DHT22;2121;48.062;7.850;2022-07-12T02:04:24;14.60;99.90
4215;DHT22;2121;48.062;7.850;2022-07-12T02:06:50;14.60;99.90
4215;DHT22;2121;48.062;7.850;2022-07-12T02:09:17;14.70;99.90
4215;DHT22;2121;48.062;7.850;2022-07-12T02:11:43;14.60;99.90
4215;DHT22;2121;48.062;7.850;2022-07-12T02:14:10;14.50;99.90
4215;DHT22;2121;48.062;7.850;2022-07-12T02:16:38;14.50;99.90
4215;DHT22;2121;48.062;7.850;2022-07-12T02:19:05;14.50;99.90
4215;DHT22;2121;48.062;7.850;2022-07-12T02:21:30;14.40;99.90
4215;DHT22;2121;48.062;7.850;2022-07-12T02:23:56;14.30;99.90
4215;DHT22;2121;48.062;7.850;2022-07-12T02:26:22;14.30;99.90
4215;DHT22;2121;48.062;7.850;2022-07-12T02:28:48;14.30;99.90
4215;DHT22;2121;48.062;7.850;2022-07-12T02:31:14;14.30;99.90
4215;DHT22;2121;48.062;7.850;2022-07-12T02:33:39;14.40;99.90
4215;DHT22;2121;48.062;7.850;2022-07-12T02:36:05;14.40;99.90
4215;DHT22;2121;48.062;7.850;2022-07-12T02:38:32;14.40;99.90
4215;DHT22;2121;48.062;7.850;2022-07-12T02:40:57;14.40;99.90
4215;DHT22;2121;48.062;7.850;2022-07-12T02:43:28;14.40;99.90
4215;DHT22;2121;48.062;7.850;2022-07-12T02:46:05;14.50;99.90
4215;DHT22;2121;48.062;7.850;2022-07-12T02:48:32;14.50;99.90
4215;DHT22;2121;48.062;7.850;2022-07-12T02:51:03;14.50;99.90
4215;DHT22;2121;48.062;7.850;2022-07-12T02:53:29;14.50;99.90
4215;DHT22;2121;48.062;7.850;2022-07-12T02:55:55;14.30;99.90
4215;DHT22;2121;48.062;7.850;2022-07-12T02:58:21;14.20;99.90
4215;DHT22;2121;48.062;7.850;2022-07-12T03:00:47;14.10;99.90
4215;DHT22;2121;48.062;7.850;2022-07-12T03:03:13;14.10;99.90
4215;DHT22;2121;48.062;7.850;2022-07-12T03:05:40;14.10;99.90
4215;DHT22;2121;48.062;7.850;2022-07-12T03:08:07;14.10;99.90
4215;DHT22;2121;48.062;7.850;2022-07-12T03:10:34;14.10;99.90
4215;DHT22;2121;48.062;7.850;2022-07-12T03:13:00;14.10;99.90
4215;DHT22;2121;48.062;7.850;2022-07-12T03:15:27;14.20;99.90
4215;DHT22;2121;48.062;7.850;2022-07-12T03:17:54;14.20;99.90
4215;DHT22;2121;48.062;7.850;2022-07-12T03:20:20;14.20;99.90
4215;DHT22;2121;48.062;7.850;2022-07-12T03:22:47;14.30;99.90
4215;DHT22;2121;48.062;7.850;2022-07-12T03:25:18;14.30;99.90
4215;DHT22;2121;48.062;7.850;2022-07-12T03:27:44;14.30;99.90
4215;DHT22;2121;48.062;7.850;2022-07-12T03:30:11;14.20;99.90
4215;DHT22;2121;48.062;7.850;2022-07-12T03:32:37;14.30;99.90
4215;DHT22;2121;48.062;7.850;2022-07-12T03:35:03;14.20;99.90
4215;DHT22;2121;48.062;7.850;2022-07-12T03:37:59;14.10;99.90
4215;DHT22;2121;48.062;7.850;2022-07-12T03:40:25;14.00;99.90
4215;DHT22;2121;48.062;7.850;2022-07-12T03:42:52;14.00;99.90
4215;DHT22;2121;48.062;7.850;2022-07-12T03:45:17;13.90;99.90
4215;DHT22;2121;48.062;7.850;2022-07-12T03:47:43;13.90;99.90
4215;DHT22;2121;48.062;7.850;2022-07-12T03:50:11;13.90;99.90
4215;DHT22;2121;48.062;7.850;2022-07-12T03:52:39;13.80;99.90
4215;DHT22;2121;48.062;7.850;2022-07-12T03:55:07;13.70;99.90
4215;DHT22;2121;48.062;7.850;2022-07-12T03:57:34;13.60;99.90
4215;DHT22;2121;48.062;7.850;2022-07-12T04:00:00;13.60;99.90
4215;DHT22;2121;48.062;7.850;2022-07-12T04:02:26;13.50;99.90
4215;DHT22;2121;48.062;7.850;2022-07-12T04:04:52;13.40;99.90
4215;DHT22;2121;48.062;7.850;2022-07-12T04:07:18;13.30;99.90
4215;DHT22;2121;48.062;7.850;2022-07-12T04:09:44;13.30;99.90
4215;DHT22;2121;48.062;7.850;2022-07-12T04:12:10;13.20;99.90
4215;DHT22;2121;48.062;7.850;2022-07-12T04:14:36;13.20;99.90
4215;DHT22;2121;48.062;7.850;2022-07-12T04:17:03;13.30;99.90
4215;DHT22;2121;48.062;7.850;2022-07-12T04:19:31;13.40;99.90
4215;DHT22;2121;48.062;7.850;2022-07-12T04:21:58;13.50;99.90
4215;DHT22;2121;48.062;7.850;2022-07-12T04:24:24;13.50;99.90
4215;DHT22;2121;48.062;7.850;2022-07-12T04:26:50;13.50;99.90
4215;DHT22;2121;48.062;7.850;2022-07-12T04:29:17;13.50;99.90
4215;DHT22;2121;48.062;7.850;2022-07-12T04:31:46;13.50;99.90
4215;DHT22;2121;48.062;7.850;2022-07-12T04:34:12;13.50;99.90
4215;DHT22;2121;48.062;7.850;2022-07-12T04:36:43;13.50;99.90
4215;DHT22;2121;48.062;7.850;2022-07-12T04:39:10;13.60;99.90
4215;DHT22;2121;48.062;7.850;2022-07-12T04:41:36;13.70;99.90
4215;DHT22;2121;48.062;7.850;2022-07-12T04:44:04;13.70;99.90
4215;DHT22;2121;48.062;7.850;2022-07-12T04:46:30;13.80;99.90
4215;DHT22;2121;48.062;7.850;2022-07-12T04:48:56;13.90;99.90
4215;DHT22;2121;48.062;7.850;2022-07-12T04:51:22;13.90;99.90
4215;DHT22;2121;48.062;7.850;2022-07-12T04:53:48;14.00;99.90
4215;DHT22;2121;48.062;7.850;2022-07-12T04:56:14;14.10;99.90
4215;DHT22;2121;48.062;7.850;2022-07-12T04:58:39;14.20;99.90
4215;DHT22;2121;48.062;7.850;2022-07-12T05:01:05;14.20;99.90
4215;DHT22;2121;48.062;7.850;2022-07-12T05:03:32;14.30;99.90
4215;DHT22;2121;48.062;7.850;2022-07-12T05:05:59;14.50;99.90
4215;DHT22;2121;48.062;7.850;2022-07-12T05:08:25;14.70;99.90
4215;DHT22;2121;48.062;7.850;2022-07-12T05:10:51;14.70;99.90
4215;DHT22;2121;48.062;7.850;2022-07-12T05:13:17;14.80;99.90
4215;DHT22;2121;48.062;7.850;2022-07-12T05:15:42;14.80;99.90
4215;DHT22;2121;48.062;7.850;2022-07-12T05:18:08;14.90;99.90
4215;DHT22;2121;48.062;7.850;2022-07-12T05:20:34;15.10;99.90
4215;DHT22;2121;48.062;7.850;2022-07-12T05:23:00;15.10;99.90
4215;DHT22;2121;48.062;7.850;2022-07-12T05:25:25;15.20;99.90
4215;DHT22;2121;48.062;7.850;2022-07-12T05:27:51;15.40;99.90
4215;DHT22;2121;48.062;7.850;2022-07-12T05:30:17;15.50;99.90
4215;DHT22;2121;48.062;7.850;2022-07-12T05:32:43;15.60;99.90
4215;DHT22;2121;48.062;7.850;2022-07-12T05:35:09;15.70;99.90
4215;DHT22;2121;48.062;7.850;2022-07-12T05:37:35;15.80;99.90
4215;DHT22;2121;48.062;7.850;2022-07-12T05:40:00;16.00;99.90
4215;DHT22;2121;48.062;7.850;2022-07-12T05:42:27;16.10;99.90
4215;DHT22;2121;48.062;7.850;2022-07-12T05:44:52;16.20;99.90
4215;DHT22;2121;48.062;7.850;2022-07-12T05:47:19;16.30;99.90
4215;DHT22;2121;48.062;7.850;2022-07-12T05:49:44;16.40;99.90
4215;DHT22;2121;48.062;7.850;2022-07-12T05:52:10;16.40;99.90
4215;DHT22;2121;48.062;7.850;2022-07-12T05:54:54;16.40;99.90
4215;DHT22;2121;48.062;7.850;2022-07-12T05:57:21;16.40;99.90
4215;DHT22;2121;48.062;7.850;2022-07-12T05:59:47;16.40;99.90
4215;DHT22;2121;48.062;7.850;2022-07-12T06:02:13;16.50;99.90
4215;DHT22;2121;48.062;7.850;2022-07-12T06:04:39;16.60;99.90
4215;DHT22;2121;48.062;7.850;2022-07-12T06:07:05;16.60;99.90
4215;DHT22;2121;48.062;7.850;2022-07-12T06:09:30;16.70;99.90
4215;DHT22;2121;48.062;7.850;2022-07-12T06:11:57;16.80;99.90
4215;DHT22;2121;48.062;7.850;2022-07-12T06:14:22;16.90;99.90
4215;DHT22;2121;48.062;7.850;2022-07-12T06:16:48;17.10;99.90
4215;DHT22;2121;48.062;7.850;2022-07-12T06:19:14;17.30;99.90
4215;DHT22;2121;48.062;7.850;2022-07-12T06:21:40;17.40;99.90
4215;DHT22;2121;48.062;7.850;2022-07-12T06:24:06;17.40;99.90
4215;DHT22;2121;48.062;7.850;2022-07-12T06:26:31;17.50;99.90
4215;DHT22;2121;48.062;7.850;2022-07-12T06:28:57;17.60;99.90
4215;DHT22;2121;48.062;7.850;2022-07-12T06:31:23;17.60;99.90
4215;DHT22;2121;48.062;7.850;2022-07-12T06:33:50;17.70;99.90
4215;DHT22;2121;48.062;7.850;2022-07-12T06:36:15;17.70;99.90
4215;DHT22;2121;48.062;7.850;2022-07-12T06:38:41;17.70;99.90
4215;DHT22;2121;48.062;7.850;2022-07-12T06:41:07;17.80;99.90
4215;DHT22;2121;48.062;7.850;2022-07-12T06:43:33;18.10;99.90
4215;DHT22;2121;48.062;7.850;2022-07-12T06:45:58;18.30;99.90
4215;DHT22;2121;48.062;7.850;2022-07-12T06:48:24;18.40;99.90
4215;DHT22;2121;48.062;7.850;2022-07-12T06:50:50;18.60;99.90
4215;DHT22;2121;48.062;7.850;2022-07-12T06:53:16;18.70;99.90
4215;DHT22;2121;48.062;7.850;2022-07-12T06:55:45;18.80;99.90
4215;DHT22;2121;48.062;7.850;2022-07-12T06:58:10;18.80;99.90
4215;DHT22;2121;48.062;7.850;2022-07-12T07:00:36;18.90;99.90
4215;DHT22;2121;48.062;7.850;2022-07-12T07:03:05;19.00;99.90
4215;DHT22;2121;48.062;7.850;2022-07-12T07:05:31;18.90;99.90
4215;DHT22;2121;48.062;7.850;2022-07-12T07:07:57;19.00;99.90
4215;DHT22;2121;48.062;7.850;2022-07-12T07:10:22;19.10;99.90
4215;DHT22;2121;48.062;7.850;2022-07-12T07:12:48;19.10;99.90
4215;DHT22;2121;48.062;7.850;2022-07-12T07:15:14;19.10;99.90
4215;DHT22;2121;48.062;7.850;2022-07-12T07:17:42;19.20;99.90
4215;DHT22;2121;48.062;7.850;2022-07-12T07:20:09;19.40;99.90
4215;DHT22;2121;48.062;7.850;2022-07-12T07:22:36;19.50;99.90
4215;DHT22;2121;48.062;7.850;2022-07-12T07:25:02;19.60;99.90
4215;DHT22;2121;48.062;7.850;2022-07-12T07:27:29;19.70;99.90
4215;DHT22;2121;48.062;7.850;2022-07-12T07:29:55;19.70;99.90
4215;DHT22;2121;48.062;7.850;2022-07-12T07:32:39;19.80;99.90
4215;DHT22;2121;48.062;7.850;2022-07-12T07:35:05;19.90;99.90
4215;DHT22;2121;48.062;7.850;2022-07-12T07:37:32;19.90;99.90
4215;DHT22;2121;48.062;7.850;2022-07-12T07:39:59;20.00;99.90
4215;DHT22;2121;48.062;7.850;2022-07-12T07:42:24;20.30;99.90
4215;DHT22;2121;48.062;7.850;2022-07-12T07:44:50;20.20;99.90
4215;DHT22;2121;48.062;7.850;2022-07-12T07:47:16;20.20;99.90
4215;DHT22;2121;48.062;7.850;2022-07-12T07:49:42;20.40;99.90
4215;DHT22;2121;48.062;7.850;2022-07-12T07:52:07;20.50;99.90
4215;DHT22;2121;48.062;7.850;2022-07-12T07:54:33;20.50;99.90
4215;DHT22;2121;48.062;7.850;2022-07-12T07:56:59;20.60;99.90
4215;DHT22;2121;48.062;7.850;2022-07-12T07:59:25;20.70;99.90
4215;DHT22;2121;48.062;7.850;2022-07-12T08:01:51;20.90;99.90
4215;DHT22;2121;48.062;7.850;2022-07-12T08:04:21;21.10;99.90
4215;DHT22;2121;48.062;7.850;2022-07-12T08:06:48;21.20;99.90
4215;DHT22;2121;48.062;7.850;2022-07-12T08:09:15;21.40;99.90
4215;DHT22;2121;48.062;7.850;2022-07-12T08:11:42;21.50;99.90
4215;DHT22;2121;48.062;7.850;2022-07-12T08:14:08;21.60;99.90
4215;DHT22;2121;48.062;7.850;2022-07-12T08:16:35;21.60;99.90
4215;DHT22;2121;48.062;7.850;2022-07-12T08:19:02;21.70;99.90
4215;DHT22;2121;48.062;7.850;2022-07-12T08:21:28;21.80;98.80
4215;DHT22;2121;48.062;7.850;2022-07-12T08:23:54;21.90;97.80
4215;DHT22;2121;48.062;7.850;2022-07-12T08:26:21;22.00;97.00
4215;DHT22;2121;48.062;7.850;2022-07-12T08:28:47;22.20;96.60
4215;DHT22;2121;48.062;7.850;2022-07-12T08:31:13;22.10;96.30
4215;DHT22;2121;48.062;7.850;2022-07-12T08:33:40;22.30;96.20
4215;DHT22;2121;48.062;7.850;2022-07-12T08:36:07;22.40;95.90
4215;DHT22;2121;48.062;7.850;2022-07-12T08:38:35;22.60;95.10
4215;DHT22;2121;48.062;7.850;2022-07-12T08:41:05;22.40;94.50
4215;DHT22;2121;48.062;7.850;2022-07-12T08:43:34;22.30;95.10
4215;DHT22;2121;48.062;7.850;2022-07-12T08:46:13;22.50;95.80
4215;DHT22;2121;48.062;7.850;2022-07-12T08:48:40;22.80;94.40
4215;DHT22;2121;48.062;7.850;2022-07-12T08:51:10;23.00;94.20
4215;DHT22;2121;48.062;7.850;2022-07-12T08:53:40;22.90;94.00
4215;DHT22;2121;48.062;7.850;2022-07-12T08:56:07;23.10;93.70
4215;DHT22;2121;48.062;7.850;2022-07-12T09:04:26;23.60;93.20
4215;DHT22;2121;48.062;7.850;2022-07-12T09:06:53;23.70;92.70
4215;DHT22;2121;48.062;7.850;2022-07-12T09:09:45;23.80;92.30
4215;DHT22;2121;48.062;7.850;2022-07-12T09:12:23;23.50;92.60
4215;DHT22;2121;48.062;7.850;2022-07-12T09:14:52;23.70;92.40
4215;DHT22;2121;48.062;7.850;2022-07-12T09:17:21;24.10;92.60
4215;DHT22;2121;48.062;7.850;2022-07-12T09:19:56;24.40;92.00
4215;DHT22;2121;48.062;7.850;2022-07-12T09:22:22;24.70;91.40
4215;DHT22;2121;48.062;7.850;2022-07-12T09:24:48;24.70;90.90
4215;DHT22;2121;48.062;7.850;2022-07-12T09:27:14;24.70;90.60
4215;DHT22;2121;48.062;7.850;2022-07-12T09:29:47;24.70;90.90
4215;DHT22;2121;48.062;7.850;2022-07-12T09:32:13;24.80;90.90
4215;DHT22;2121;48.062;7.850;2022-07-12T09:34:58;24.70;90.50
4215;DHT22;2121;48.062;7.850;2022-07-12T09:37:43;24.70;90.80
4215;DHT22;2121;48.062;7.850;2022-07-12T09:40:09;24.80;90.60
4215;DHT22;2121;48.062;7.850;2022-07-12T09:42:35;24.90;91.20
4215;DHT22;2121;48.062;7.850;2022-07-12T09:45:03;25.20;90.10
4215;DHT22;2121;48.062;7.850;2022-07-12T09:47:31;25.50;88.80
4215;DHT22;2121;48.062;7.850;2022-07-12T09:49:57;25.70;89.30
4215;DHT22;2121;48.062;7.850;2022-07-12T09:52:25;25.90;87.80
4215;DHT22;2121;48.062;7.850;2022-07-12T09:54:53;26.00;88.00
4215;DHT22;2121;48.062;7.850;2022-07-12T09:57:30;26.20;86.30
4215;DHT22;2121;48.062;7.850;2022-07-12T09:59:58;26.10;87.70
4215;DHT22;2121;48.062;7.850;2022-07-12T10:02:25;26.10;87.10
4215;DHT22;2121;48.062;7.850;2022-07-12T10:04:52;26.20;86.50
4215;DHT22;2121;48.062;7.850;2022-07-12T10:07:18;26.50;85.30
4215;DHT22;2121;48.062;7.850;2022-07-12T10:09:46;26.80;85.40
4215;DHT22;2121;48.062;7.850;2022-07-12T10:12:17;26.80;85.50
4215;DHT22;2121;48.062;7.850;2022-07-12T10:14:44;27.00;85.00
4215;DHT22;2121;48.062;7.850;2022-07-12T10:17:11;26.80;84.70
4215;DHT22;2121;48.062;7.850;2022-07-12T10:19:38;26.50;83.50
4215;DHT22;2121;48.062;7.850;2022-07-12T10:22:18;26.10;84.40
4215;DHT22;2121;48.062;7.850;2022-07-12T10:24:47;26.10;84.80
4215;DHT22;2121;48.062;7.850;2022-07-12T10:29:40;26.80;82.70
4215;DHT22;2121;48.062;7.850;2022-07-12T10:32:35;26.90;82.00
4215;DHT22;2121;48.062;7.850;2022-07-12T10:37:29;26.30;83.20
4215;DHT22;2121;48.062;7.850;2022-07-12T10:40:14;26.50;82.10
4215;DHT22;2121;48.062;7.850;2022-07-12T10:45:34;26.80;82.40
4215;DHT22;2121;48.062;7.850;2022-07-12T10:48:06;27.20;82.70
4215;DHT22;2121;48.062;7.850;2022-07-12T10:58:53;27.90;78.90
4215;DHT22;2121;48.062;7.850;2022-07-12T11:01:31;28.40;77.90
4215;DHT22;2121;48.062;7.850;2022-07-12T11:04:05;28.50;79.30
4215;DHT22;2121;48.062;7.850;2022-07-12T11:06:37;28.70;78.40
4215;DHT22;2121;48.062;7.850;2022-07-12T11:09:06;28.60;77.80
4215;DHT22;2121;48.062;7.850;2022-07-12T11:11:35;29.00;75.20
4215;DHT22;2121;48.062;7.850;2022-07-12T11:14:09;28.80;75.60
4215;DHT22;2121;48.062;7.850;2022-07-12T11:16:46;28.60;76.80
4215;DHT22;2121;48.062;7.850;2022-07-12T11:19:16;28.40;77.60
4215;DHT22;2121;48.062;7.850;2022-07-12T11:21:45;28.00;77.50
4215;DHT22;2121;48.062;7.850;2022-07-12T11:24:21;28.30;78.10
4215;DHT22;2121;48.062;7.850;2022-07-12T11:26:49;28.70;77.40
4215;DHT22;2121;48.062;7.850;2022-07-12T11:29:15;28.30;76.00
4215;DHT22;2121;48.062;7.850;2022-07-12T11:31:41;28.30;75.90
4215;DHT22;2121;48.062;7.850;2022-07-12T11:34:09;28.60;75.70
4215;DHT22;2121;48.062;7.850;2022-07-12T11:36:45;28.90;76.30
4215;DHT22;2121;48.062;7.850;2022-07-12T11:39:11;28.20;74.20
4215;DHT22;2121;48.062;7.850;2022-07-12T11:41:37;27.90;76.30
4215;DHT22;2121;48.062;7.850;2022-07-12T11:44:03;28.30;74.40
4215;DHT22;2121;48.062;7.850;2022-07-12T11:46:29;28.80;73.60
4215;DHT22;2121;48.062;7.850;2022-07-12T11:48:55;29.30;73.80
4215;DHT22;2121;48.062;7.850;2022-07-12T11:51:26;29.90;74.60
4215;DHT22;2121;48.062;7.850;2022-07-12T11:53:52;30.10;73.40
4215;DHT22;2121;48.062;7.850;2022-07-12T11:56:29;30.50;73.70
4215;DHT22;2121;48.062;7.850;2022-07-12T11:58:56;30.20;71.20
4215;DHT22;2121;48.062;7.850;2022-07-12T12:01:22;30.30;71.90
4215;DHT22;2121;48.062;7.850;2022-07-12T12:03:50;31.00;71.00
4215;DHT22;2121;48.062;7.850;2022-07-12T12:06:17;31.80;72.20
4215;DHT22;2121;48.062;7.850;2022-07-12T12:08:43;31.20;71.30
4215;DHT22;2121;48.062;7.850;2022-07-12T12:11:10;30.90;72.30
4215;DHT22;2121;48.062;7.850;2022-07-12T12:13:36;31.50;70.20
4215;DHT22;2121;48.062;7.850;2022-07-12T12:16:03;31.20;70.60
4215;DHT22;2121;48.062;7.850;2022-07-12T12:18:38;31.70;70.90
4215;DHT22;2121;48.062;7.850;2022-07-12T12:21:09;31.30;70.10
4215;DHT22;2121;48.062;7.850;2022-07-12T12:23:37;31.80;70.10
4215;DHT22;2121;48.062;7.850;2022-07-12T12:26:17;33.20;68.20
4215;DHT22;2121;48.062;7.850;2022-07-12T12:28:48;33.40;67.50
4215;DHT22;2121;48.062;7.850;2022-07-12T12:31:19;33.20;68.40
4215;DHT22;2121;48.062;7.850;2022-07-12T12:33:50;33.40;67.70
4215;DHT22;2121;48.062;7.850;2022-07-12T12:36:24;33.10;67.90
4215;DHT22;2121;48.062;7.850;2022-07-12T12:38:53;33.70;66.20
4215;DHT22;2121;48.062;7.850;2022-07-12T12:41:21;34.60;65.40
4215;DHT22;2121;48.062;7.850;2022-07-12T12:44:10;33.40;66.80
4215;DHT22;2121;48.062;7.850;2022-07-12T12:46:55;32.50;67.10
4215;DHT22;2121;48.062;7.850;2022-07-12T12:49:49;32.90;67.10
4215;DHT22;2121;48.062;7.850;2022-07-12T12:52:17;33.60;66.90
4215;DHT22;2121;48.062;7.850;2022-07-12T12:54:43;33.90;66.60
4215;DHT22;2121;48.062;7.850;2022-07-12T12:57:10;34.60;66.50
4215;DHT22;2121;48.062;7.850;2022-07-12T12:59:37;34.40;64.90
4215;DHT22;2121;48.062;7.850;2022-07-12T13:02:04;35.90;64.80
4215;DHT22;2121;48.062;7.850;2022-07-12T13:04:33;36.60;62.30
4215;DHT22;2121;48.062;7.850;2022-07-12T13:07:00;36.40;62.20
4215;DHT22;2121;48.062;7.850;2022-07-12T13:09:27;35.10;62.80
4215;DHT22;2121;48.062;7.850;2022-07-12T13:11:54;34.10;63.80
4215;DHT22;2121;48.062;7.850;2022-07-12T13:14:20;33.90;65.10
4215;DHT22;2121;48.062;7.850;2022-07-12T13:16:46;35.50;62.20
4215;DHT22;2121;48.062;7.850;2022-07-12T13:19:12;36.50;60.50
4215;DHT22;2121;48.062;7.850;2022-07-12T13:21:38;35.90;63.10
4215;DHT22;2121;48.062;7.850;2022-07-12T13:24:04;36.10;63.00
4215;DHT22;2121;48.062;7.850;2022-07-12T13:26:30;35.40;62.30
4215;DHT22;2121;48.062;7.850;2022-07-12T13:28:57;35.00;62.10
4215;DHT22;2121;48.062;7.850;2022-07-12T13:31:23;35.00;62.70
4215;DHT22;2121;48.062;7.850;2022-07-12T13:33:51;33.40;64.30
4215;DHT22;2121;48.062;7.850;2022-07-12T13:36:16;34.70;64.90
4215;DHT22;2121;48.062;7.850;2022-07-12T13:38:42;35.00;62.50
4215;DHT22;2121;48.062;7.850;2022-07-12T13:41:08;35.60;62.50
4215;DHT22;2121;48.062;7.850;2022-07-12T13:43:33;35.00;61.90
4215;DHT22;2121;48.062;7.850;2022-07-12T13:45:59;34.50;62.80
4215;DHT22;2121;48.062;7.850;2022-07-12T13:48:26;33.40;63.60
4215;DHT22;2121;48.062;7.850;2022-07-12T13:50:51;33.90;63.70
4215;DHT22;2121;48.062;7.850;2022-07-12T13:53:17;33.30;64.10
4215;DHT22;2121;48.062;7.850;2022-07-12T13:55:44;33.30;64.10
4215;DHT22;2121;48.062;7.850;2022-07-12T13:58:11;33.80;63.40
4215;DHT22;2121;48.062;7.850;2022-07-12T14:00:37;33.90;62.60
4215;DHT22;2121;48.062;7.850;2022-07-12T14:03:03;33.10;63.90
4215;DHT22;2121;48.062;7.850;2022-07-12T14:05:29;34.20;63.40
4215;DHT22;2121;48.062;7.850;2022-07-12T14:07:56;35.50;62.50
4215;DHT22;2121;48.062;7.850;2022-07-12T14:10:21;35.20;61.60
4215;DHT22;2121;48.062;7.850;2022-07-12T14:12:47;34.90;61.20
4215;DHT22;2121;48.062;7.850;2022-07-12T14:15:14;35.10;61.10
4215;DHT22;2121;48.062;7.850;2022-07-12T14:17:42;35.60;62.50
4215;DHT22;2121;48.062;7.850;2022-07-12T14:20:18;34.60;61.30
4215;DHT22;2121;48.062;7.850;2022-07-12T14:22:45;34.60;61.60
4215;DHT22;2121;48.062;7.850;2022-07-12T14:25:12;34.00;62.20
4215;DHT22;2121;48.062;7.850;2022-07-12T14:27:39;34.20;63.10
4215;DHT22;2121;48.062;7.850;2022-07-12T14:30:07;33.50;62.20
4215;DHT22;2121;48.062;7.850;2022-07-12T14:32:35;33.90;63.30
4215;DHT22;2121;48.062;7.850;2022-07-12T14:35:01;34.90;61.60
4215;DHT22;2121;48.062;7.850;2022-07-12T14:37:27;34.90;62.00
4215;DHT22;2121;48.062;7.850;2022-07-12T14:39:53;35.60;61.60
4215;DHT22;2121;48.062;7.850;2022-07-12T14:42:19;35.40;61.20
4215;DHT22;2121;48.062;7.850;2022-07-12T14:44:45;34.80;60.90
4215;DHT22;2121;48.062;7.850;2022-07-12T14:47:11;34.60;61.70
4215;DHT22;2121;48.062;7.850;2022-07-12T14:49:39;33.70;63.00
4215;DHT22;2121;48.062;7.850;2022-07-12T14:52:05;33.70;62.80
4215;DHT22;2121;48.062;7.850;2022-07-12T14:54:32;33.70;62.80
4215;DHT22;2121;48.062;7.850;2022-07-12T14:56:58;33.90;62.10
4215;DHT22;2121;48.062;7.850;2022-07-12T14:59:24;33.50;62.60
4215;DHT22;2121;48.062;7.850;2022-07-12T15:01:50;33.60;62.30
4215;DHT22;2121;48.062;7.850;2022-07-12T15:04:18;33.60;62.50
4215;DHT22;2121;48.062;7.850;2022-07-12T15:06:44;35.20;62.70
4215;DHT22;2121;48.062;7.850;2022-07-12T15:09:10;37.00;60.30
4215;DHT22;2121;48.062;7.850;2022-07-12T15:11:36;37.90;57.80
4215;DHT22;2121;48.062;7.850;2022-07-12T15:14:03;36.40;57.70
4215;DHT22;2121;48.062;7.850;2022-07-12T15:16:29;36.00;58.80
4215;DHT22;2121;48.062;7.850;2022-07-12T15:18:55;35.20;59.30
4215;DHT22;2121;48.062;7.850;2022-07-12T15:21:23;34.50;59.70
4215;DHT22;2121;48.062;7.850;2022-07-12T15:23:49;36.20;60.30
4215;DHT22;2121;48.062;7.850;2022-07-12T15:26:15;37.20;59.10
4215;DHT22;2121;48.062;7.850;2022-07-12T15:28:55;36.90;59.60
4215;DHT22;2121;48.062;7.850;2022-07-12T15:31:22;37.10;58.60
4215;DHT22;2121;48.062;7.850;2022-07-12T15:33:49;38.20;57.80
4215;DHT22;2121;48.062;7.850;2022-07-12T15:36:15;37.70;57.50
4215;DHT22;2121;48.062;7.850;2022-07-12T15:38:42;36.70;57.20
4215;DHT22;2121;48.062;7.850;2022-07-12T15:41:12;36.30;58.00
4215;DHT22;2121;48.062;7.850;2022-07-12T15:43:39;33.90;59.10
4215;DHT22;2121;48.062;7.850;2022-07-12T15:46:06;32.60;61.50
4215;DHT22;2121;48.062;7.850;2022-07-12T15:48:33;33.00;63.50
4215;DHT22;2121;48.062;7.850;2022-07-12T15:50:59;34.00;60.90
4215;DHT22;2121;48.062;7.850;2022-07-12T15:53:25;34.70;59.80
4215;DHT22;2121;48.062;7.850;2022-07-12T15:56:08;34.30;60.10
4215;DHT22;2121;48.062;7.850;2022-07-12T15:58:39;34.10;59.80
4215;DHT22;2121;48.062;7.850;2022-07-12T16:01:07;34.10;60.50
4215;DHT22;2121;48.062;7.850;2022-07-12T16:03:33;34.70;59.70
4215;DHT22;2121;48.062;7.850;2022-07-12T16:06:01;33.60;60.10
4215;DHT22;2121;48.062;7.850;2022-07-12T16:08:29;32.60;62.20
4215;DHT22;2121;48.062;7.850;2022-07-12T16:10:56;32.60;62.10
4215;DHT22;2121;48.062;7.850;2022-07-12T16:13:22;32.40;61.80
4215;DHT22;2121;48.062;7.850;2022-07-12T16:15:48;32.70;61.90
4215;DHT22;2121;48.062;7.850;2022-07-12T16:18:14;33.20;61.80
4215;DHT22;2121;48.062;7.850;2022-07-12T16:20:40;32.20;61.60
4215;DHT22;2121;48.062;7.850;2022-07-12T16:23:06;32.90;62.70
4215;DHT22;2121;48.062;7.850;2022-07-12T16:25:33;33.70;60.90
4215;DHT22;2121;48.062;7.850;2022-07-12T16:28:00;33.90;60.50
4215;DHT22;2121;48.062;7.850;2022-07-12T16:30:26;33.50;60.50